Detall de PIREP

Printer-friendly versionPDF version

[2011/06/22 22:27:00]
Flight IATA:CT1004
Pilot Number:026
Company ICAO:CAT
Aircraft Type:DC85/A
PAX:132
Departing Airport: LFMP
Destination Airport: LEDA
Alternate Airport:LEBL
Online: VATSIM
Route:BGR H110 REBUL
Flight Level:F170
No Slew and time accel
No pause
Crash detect
Detect pilot in Cockpit between each 30 and 45 minutes
22:27 Zero fuel Weight: 179075 Lbs, Fuel Weight: 19986 Lbs
22:27 VATSIM:LFMP 222200Z AUTO 32008KT 290V360 9999 FEW062 20/14 Q1020
22:27 VATSIM:LEDA 221630Z 29010KT 260V330 9999 FEW050TCU 33/09 Q1015
22:28 VOICE CATALONIAN / FLAMA DEL CANIGO
22:33 Parking Brakes off
22:38 Take-off
22:38 Take off Weight: 198162 Lbs
22:38 Wind: 334º @ 008 Knots Heading: 328º
22:38 POS N42º 45´ 16´´ E002º 51´ 41´´
22:39 Gear Up: 163 Knots
22:39 Flaps:2 at 163 Knots
22:40 Flaps:1 at 173 Knots
22:41 Flaps:0 at 163 Knots
22:46 TOC
22:46 Fuel Weight: 16348 Lb
22:54 Wind:332º@007 Knots Heading: 270º Ground Speed: 411 Knots Altitude 17162 ft
23:00 TOD
23:00 Fuel Weight: 13290 Lb
23:09 Wind:099º@004 Knots Heading: 246º Ground Speed: 253 Knots Altitude 5141 ft
23:10 Flaps:1 at 203 Knots
23:11 Gear Down: 206 Knots
23:11 Flaps:2 at 206 Knots
23:12 Flaps:3 at 193 Knots
23:12 Flaps:4 at 165 Knots
23:13 Flaps:5 at 148 Knots
23:13 TouchDown:Rate -238 ft/min Speed: 128 Knots
23:13 VATSIM:LEDA 221630Z 29010KT 260V330 9999 FEW050TCU 33/09 Q1015
23:13 Land
23:13 Wind:311º@002 Knots
23:13 Heading: 313º
23:13 Flight Duration: 00:34
23:13 Landing Weight: 191283 Lbs
23:13 POS N41º 43´ 52´´ E000º 31´ 50´´
23:21 Parking brakes on
23:21 Block to Block Duration: 00:48
23:21 Final Fuel: 11571 Lbls
23:21 Spent Fuel: 8414 Lbls
23:21 Flight Length: 195 NM
23:21 TOD Land Length: 63 NM

Exportar CSV

Powered by Drupal - Modified by Danger4k